AirNav   Pilot Hours Calculator
 
 1499 users online  

53K Osage City Municipal Airport
Osage City, Kansas, USA

GOING TO OSAGE CITY?


FAA INFORMATION EFFECTIVE 10 OCTOBER 2019

Location

FAA Identifier: 53K
Lat/Long: 38-38-00.3750N 095-48-06.4500W
38-38.006250N 095-48.107500W
38.6334375,-95.8017917
(estimated)
Elevation: 1105 ft. / 337 m (estimated)
Variation: 06E (1985)
From city: 1 mile E of OSAGE CITY, KS
Time zone: UTC -5 (UTC -6 during Standard Time)
Zip code: 66523

Airport Operations

Airport use: Open to the public
Activation date: 01/1949
Control tower: no
ARTCC: KANSAS CITY CENTER
FSS: WICHITA FLIGHT SERVICE STATION
NOTAMs facility: ICT (NOTAM-D service available)
Attendance: UNATNDD
Wind indicator: yes
Segmented circle: no
Lights: SS-SR
Beacon: white-green (lighted land airport)

Airport Communications

CTAF: 122.9

Nearby radio navigation aids

VOR radial/distance  VOR name  Freq  Var
EMPr030/25.9EMPORIA VORTAC112.8008E
TOPr196/32.4TOPEKA VORTAC117.8005E

 
NDB name  Hdg/Dist  Freq  Var  ID
BOYD344/20.424505EUKL ..- -.- .-..

Airport Services

Parking: tiedowns
Bottled oxygen: NONE
Bulk oxygen: NONE

Runway Information

Runway 17/35

Dimensions: 2560 x 40 ft. / 780 x 12 m
Surface: asphalt/aggregate friction seal coat, in excellent condition
Runway edge lights: non-standard
RWY END LTS RED, NO SPLIT LENS; DSPLCD THLD LTS GREEN, NO SPLIT LENS.
Gradient: S
RUNWAY 17  RUNWAY 35
Latitude: 38-38.217167N38-37.795333N
Longitude: 095-48.107500W095-48.107500W
Elevation: 1092.0 ft.1105.0 ft.
Traffic pattern: leftleft
Runway heading: 174 magnetic, 180 true354 magnetic, 000 true
Displaced threshold: 215 ft.252 ft.
Markings: basic, in good conditionbasic, in good condition
Obstructions: 60 ft. trees, 1004 ft. from runway, 35 ft. both sides of centerline, 13:1 slope to clear
+15 ROAD 50 FT FM RWY END; +30 POLE 150 FT FM RWY END 120 FT L OF CNTRLN.
28 ft. tree, 404 ft. from runway, 112 ft. right of centerline, 7:1 slope to clear
+15 ROAD 27 FT FM RWY END.

Airport Ownership and Management from official FAA records

Ownership: Publicly-owned
Owner: CITY OF OSAGE
201 S 5TH ST
OSAGE CITY, KS 66523
Phone 785-528-3714
Manager: RODNEY WILLIS
201 S 5TH ST
OSAGE CITY, KS 66523
Phone 785-528-3714

Airport Operational Statistics

Aircraft based on the field: 13
Single engine airplanes: 9
Helicopters: 4
    
Aircraft operations: avg 52/week *
81% local general aviation
19% transient general aviation
* for 12-month period ending 31 August 2018

Additional Remarks

PAJA ACTIVITIES SAT & SUN.
+15 RD 55 FT E OF RWY.
FOR CD CTC KANSAS CITY ARTCC AT 913-254-8508.

Instrument Procedures

There are no published instrument procedures at 53K.

Some nearby airports with instrument procedures:

KFOE - Topeka Regional Airport (20 nm N)
KUKL - Coffey County Airport (20 nm S)
KEMP - Emporia Municipal Airport (26 nm SW)
KOWI - Ottawa Municipal Airport (26 nm E)
KTOP - Philip Billard Municipal Airport (27 nm N)
 
Loc | Ops | Rwys | IFR | FBO | Links
Com | Nav | Svcs | Stats | Notes

Kansas City Aviation Department
 
Area around 53K (Osage City Municipal Airport)
 
Road maps at: MapQuest Bing Google
 
Aerial photo
WARNING: Photo may not be current or correct
Aerial photo of 53K (Osage City Municipal Airport)
Do you have a better or more recent aerial photo of Osage City Municipal Airport that you would like to share? If so, please send us your photo.

 
Sectional chart

 
Airport distance calculator
Flying to Osage City Municipal Airport? Find the distance to fly.

From to 53K

Sunrise and sunset
Times for 17-Oct-2019
 Local
(UTC-5)
 Zulu
(UTC)
Morning civil twilight07:0912:09
Sunrise07:3512:35
Sunset18:4223:42
Evening civil twilight19:0900:09

Current date and time
Zulu (UTC)  17-Oct-2019 19:43:19
Local (UTC-5)  17-Oct-2019 14:43:19
 
METAR
KFOE 
19nm N 
171853Z 19011KT 10SM CLR 21/06 A2991 RMK AO2 SLP126 T02060061
KEMP 
26nm SW 
171853Z AUTO 18013G20KT 10SM CLR 21/07 A2991 RMK AO2 SLP127 T02110067
KOWI 
26nm E 
171915Z AUTO 19011G16KT 10SM CLR 21/07 A2991 RMK AO2
KTOP 
27nm N 
171853Z 18009G16KT 10SM CLR 21/06 A2990 RMK AO2 SLP124 T02060056
KLWC 
36nm NE 
170953Z 09005KT 10SM CLR 02/01 A3004
TAF
KFOE 
19nm N 
171721Z 1718/1818 18013G20KT P6SM SKC FM172300 16010KT P6SM FEW250 FM180300 16011KT P6SM SCT250 WS020/20045KT FM181400 18021G30KT P6SM FEW250
NOTAMs
Click for the latest NOTAMs
NOTAMs are issued by the DoD/FAA and will open in a separate window not controlled by AirNav.

 

 
 

Would you like to see your business listed on this page?

 If your business provides an interesting product or service to pilots, flight crews, aircraft, or users of the Osage City Municipal Airport, you should consider listing it here.  To start the listing process, click on the button below
 
Add a business
 

Other Pages about Osage City Municipal Airport

Update a link
 
Copyright © AirNav, LLC. All rights reserved. Privacy Policy  Contact